Clio, MI (48420)

1:23 PM EST on November 22, 2014 (GMT -0500)
Birch Run, MI | Change Station
CLOSE
Current Station
Personal Weather Station
Location: Birch Run, MI
Elevation: 663 ft
Nearby Weather Stations

Elev 663 ft 43.23 °N, 83.75 °W | Updated 5 seconds ago

Overcast
Overcast
41.0 °F
Feels Like 41 °F
N
0.0
Wind Variable Wind from SW
Gusts 0.0 mph

Today
High -- | Low -- °F
--% Chance of Precip.
Yesterday
High -- | Low -- °F
Precip. -- in
7:36 AM 5:05 PM
New Moon, 0% visible
Pressure 29.99 in
Visibility 5.0 miles
Clouds Overcast 900 ft
Windchill 41 °F
Dew Point 36 °F
Humidity 81%
Rainfall 0.00 in
Snow Depth Not available.
UV 1 out of 12
Pollen .10 out of 12
Air Quality Not available.
Flu Activity Not available.
METAR KFNT 221753Z 23010KT 5SM HZ OVC009 05/02 A2996 RMK AO2 SLP154 60005 T00500022 10050 20000 58026

More Conditions Fewer Conditions

Pressure 29.99 in
Visibility 5.0 miles
Clouds Overcast 900 ft
Windchill 41 °F
Dew Point 36 °F
Humidity 81%
Rainfall 0.00 in
Snow Depth Not available.
UV 1 out of 12
Pollen .10 out of 12
Air Quality Not available.
Flu Activity Not available.
METAR KFNT 221753Z 23010KT 5SM HZ OVC009 05/02 A2996 RMK AO2 SLP154 60005 T00500022 10050 20000 58026

More Conditions Fewer Conditions

10-Day Weather Forecast

Almanac

Astronomy

Nov. 22, 2014 Rise Set
Actual Time
Civil Twilight
Nautical Twilight
Astronomical Twilight
Moon
Length of Visible Light
Length of Day
Tomorrow will be .
, % of the Moon is Illuminated

Today's Extremes

State Highs State Lows

Community

WunderPhotos

Upload Photos

1,772,872 photos uploaded!

WunderBlogs® & News

Nearby

Air Quality

  Air Quality AQ Index Pollutant
Not available.

Snow Depth

Station Depth Elevation

Earthquake Activity

City Distance Mag. Time & Date
Minimum magnitude displayed is 2.5.

Coastal Water Temperatures

Place Temperature

Nearby Weather Stations